Time;durP1;ratioP1;P1;durP2;ratioP2;P2;SDS_P1;SDS_P2;PMS_P1;PMS_P2;Temp;Humidity;BMP_temperature;BMP_pressure;BME280_temperature;BME280_humidity;BME280_pressure;Samples;Min_cycle;Max_cycle;Signal;HPM_P1;HPM_P2
2019/06/15 00:00:00;;;;;;;17.45;13.45;;;;;;;19.28;80.32324;94724.19;;;;
2019/06/15 00:01:01;;;;;;;17.45;13.45;;;;;;;19.28;80.32324;94724.19;;;;
2019/06/15 00:02:03;;;;;;;17.45;13.45;;;;;;;19.28;80.32324;94724.19;;;;
2019/06/15 00:03:04;;;;;;;17.45;13.45;;;;;;;19.28;80.32324;94724.19;;;;
2019/06/15 00:04:05;;;;;;;17.45;13.45;;;;;;;19.28;80.32324;94724.19;;;;
2019/06/15 00:05:06;;;;;;;17.45;13.45;;;;;;;19.28;80.32324;94724.19;;;;
2019/06/15 00:06:07;;;;;;;17.45;13.45;;;;;;;19.28;80.32324;94724.19;;;;
2019/06/15 00:07:08;;;;;;;17.45;13.45;;;;;;;19.28;80.32324;94724.19;;;;
2019/06/15 00:08:09;;;;;;;17.45;13.45;;;;;;;19.28;80.32324;94724.19;;;;
2019/06/15 00:09:10;;;;;;;15.3;13.75;;;;;;;19.12;80.94824;94720.09;;;;
2019/06/15 00:10:11;;;;;;;15.3;13.75;;;;;;;19.12;80.94824;94720.09;;;;
2019/06/15 00:11:12;;;;;;;15.3;13.75;;;;;;;19.12;80.94824;94720.09;;;;
2019/06/15 00:12:13;;;;;;;15.3;13.75;;;;;;;19.12;80.94824;94720.09;;;;
2019/06/15 00:13:14;;;;;;;15.3;13.75;;;;;;;19.12;80.94824;94720.09;;;;
2019/06/15 00:14:15;;;;;;;15.3;13.75;;;;;;;19.12;80.94824;94720.09;;;;
2019/06/15 00:15:16;;;;;;;15.3;13.75;;;;;;;19.12;80.94824;94720.09;;;;
2019/06/15 00:16:18;;;;;;;15.3;13.75;;;;;;;19.12;80.94824;94720.09;;;;
2019/06/15 00:17:19;;;;;;;15.3;13.75;;;;;;;19.12;80.94824;94720.09;;;;
2019/06/15 00:18:20;;;;;;;15.3;13.75;;;;;;;19.12;80.94824;94720.09;;;;
2019/06/15 00:19:21;;;;;;;14.7;13.15;;;;;;;19.08;81.94141;94717.33;;;;
2019/06/15 00:20:22;;;;;;;14.7;13.15;;;;;;;19.08;81.94141;94717.33;;;;
2019/06/15 00:21:23;;;;;;;14.7;13.15;;;;;;;19.08;81.94141;94717.33;;;;
2019/06/15 00:22:24;;;;;;;14.7;13.15;;;;;;;19.08;81.94141;94717.33;;;;
2019/06/15 00:23:25;;;;;;;14.7;13.15;;;;;;;19.08;81.94141;94717.33;;;;
2019/06/15 00:24:26;;;;;;;14.7;13.15;;;;;;;19.08;81.94141;94717.33;;;;
2019/06/15 00:25:27;;;;;;;14.7;13.15;;;;;;;19.08;81.94141;94717.33;;;;
2019/06/15 00:26:28;;;;;;;14.7;13.15;;;;;;;19.08;81.94141;94717.33;;;;
2019/06/15 00:27:29;;;;;;;14.7;13.15;;;;;;;19.08;81.94141;94717.33;;;;
2019/06/15 00:28:30;;;;;;;14.7;13.15;;;;;;;19.08;81.94141;94717.33;;;;
2019/06/15 00:29:31;;;;;;;14.7;13.15;;;;;;;19.08;81.94141;94717.33;;;;
2019/06/15 00:30:32;;;;;;;15.9;13.65;;;;;;;19.14;82.39941;94732.92;;;;
2019/06/15 00:31:34;;;;;;;15.9;13.65;;;;;;;19.14;82.39941;94732.92;;;;
2019/06/15 00:32:35;;;;;;;15.9;13.65;;;;;;;19.14;82.39941;94732.92;;;;
2019/06/15 00:33:36;;;;;;;15.9;13.65;;;;;;;19.14;82.39941;94732.92;;;;
2019/06/15 00:34:37;;;;;;;15.9;13.65;;;;;;;19.14;82.39941;94732.92;;;;
2019/06/15 00:35:38;;;;;;;15.9;13.65;;;;;;;19.14;82.39941;94732.92;;;;
2019/06/15 00:36:39;;;;;;;15.9;13.65;;;;;;;19.14;82.39941;94732.92;;;;
2019/06/15 00:37:40;;;;;;;15.9;13.65;;;;;;;19.14;82.39941;94732.92;;;;
2019/06/15 00:38:41;;;;;;;15.9;13.65;;;;;;;19.14;82.39941;94732.92;;;;
2019/06/15 00:39:42;;;;;;;15.9;13.65;;;;;;;19.14;82.39941;94732.92;;;;
2019/06/15 00:40:43;;;;;;;14.6;13.1;;;;;;;19.26;82.98633;94747.5;;;;
2019/06/15 00:41:44;;;;;;;14.6;13.1;;;;;;;19.26;82.98633;94747.5;;;;
2019/06/15 00:42:45;;;;;;;14.6;13.1;;;;;;;19.26;82.98633;94747.5;;;;
2019/06/15 00:43:47;;;;;;;14.6;13.1;;;;;;;19.26;82.98633;94747.5;;;;
2019/06/15 00:44:48;;;;;;;14.6;13.1;;;;;;;19.26;82.98633;94747.5;;;;
2019/06/15 00:45:49;;;;;;;14.6;13.1;;;;;;;19.26;82.98633;94747.5;;;;
2019/06/15 00:46:50;;;;;;;14.6;13.1;;;;;;;19.26;82.98633;94747.5;;;;
2019/06/15 00:47:51;;;;;;;14.6;13.1;;;;;;;19.26;82.98633;94747.5;;;;
2019/06/15 00:48:52;;;;;;;14.6;13.1;;;;;;;19.26;82.98633;94747.5;;;;
2019/06/15 00:49:53;;;;;;;14.6;13.1;;;;;;;19.26;82.98633;94747.5;;;;
2019/06/15 00:50:54;;;;;;;15.35;13.75;;;;;;;19.25;83.5293;94730.83;;;;
2019/06/15 00:51:55;;;;;;;15.35;13.75;;;;;;;19.25;83.5293;94730.83;;;;
2019/06/15 00:52:56;;;;;;;15.35;13.75;;;;;;;19.25;83.5293;94730.83;;;;
2019/06/15 00:53:57;;;;;;;15.35;13.75;;;;;;;19.25;83.5293;94730.83;;;;
2019/06/15 00:54:58;;;;;;;15.35;13.75;;;;;;;19.25;83.5293;94730.83;;;;
2019/06/15 00:55:59;;;;;;;15.35;13.75;;;;;;;19.25;83.5293;94730.83;;;;
2019/06/15 00:57:00;;;;;;;15.35;13.75;;;;;;;19.25;83.5293;94730.83;;;;
2019/06/15 00:58:01;;;;;;;15.35;13.75;;;;;;;19.25;83.5293;94730.83;;;;
2019/06/15 00:59:02;;;;;;;15.35;13.75;;;;;;;19.25;83.5293;94730.83;;;;
2019/06/15 01:00:03;;;;;;;15.35;13.75;;;;;;;19.25;83.5293;94730.83;;;;
2019/06/15 01:01:05;;;;;;;15.35;13.75;;;;;;;19.25;83.5293;94730.83;;;;
2019/06/15 01:02:06;;;;;;;15.45;13.95;;;;;;;19.23;84.11328;94696.11;;;;
2019/06/15 01:03:07;;;;;;;15.45;13.95;;;;;;;19.23;84.11328;94696.11;;;;
2019/06/15 01:04:08;;;;;;;15.45;13.95;;;;;;;19.23;84.11328;94696.11;;;;
2019/06/15 01:05:09;;;;;;;15.45;13.95;;;;;;;19.23;84.11328;94696.11;;;;
2019/06/15 01:06:10;;;;;;;15.45;13.95;;;;;;;19.23;84.11328;94696.11;;;;
2019/06/15 01:07:12;;;;;;;15.45;13.95;;;;;;;19.23;84.11328;94696.11;;;;
2019/06/15 01:08:13;;;;;;;15.45;13.95;;;;;;;19.23;84.11328;94696.11;;;;
2019/06/15 01:09:14;;;;;;;15.45;13.95;;;;;;;19.23;84.11328;94696.11;;;;
2019/06/15 01:10:15;;;;;;;15.45;13.95;;;;;;;19.23;84.11328;94696.11;;;;
2019/06/15 01:11:16;;;;;;;15.45;13.95;;;;;;;19.23;84.11328;94696.11;;;;
2019/06/15 01:12:17;;;;;;;15.4;14;;;;;;;19.09;84.77344;94659.55;;;;
2019/06/15 01:13:18;;;;;;;15.4;14;;;;;;;19.09;84.77344;94659.55;;;;
2019/06/15 01:14:20;;;;;;;15.4;14;;;;;;;19.09;84.77344;94659.55;;;;
2019/06/15 01:15:21;;;;;;;15.4;14;;;;;;;19.09;84.77344;94659.55;;;;
2019/06/15 01:16:25;;;;;;;15.4;14;;;;;;;19.09;84.77344;94659.55;;;;
2019/06/15 01:17:26;;;;;;;15.4;14;;;;;;;19.09;84.77344;94659.55;;;;
2019/06/15 01:18:27;;;;;;;15.4;14;;;;;;;19.09;84.77344;94659.55;;;;
2019/06/15 01:19:28;;;;;;;15.4;14;;;;;;;19.09;84.77344;94659.55;;;;
2019/06/15 01:20:29;;;;;;;15.4;14;;;;;;;19.09;84.77344;94659.55;;;;
2019/06/15 01:21:30;;;;;;;15.4;14;;;;;;;19.09;84.77344;94659.55;;;;
2019/06/15 01:22:31;;;;;;;15.4;14;;;;;;;19.09;84.77344;94659.55;;;;
2019/06/15 01:23:32;;;;;;;15.8;14.15;;;;;;;19.02;85.55371;94665.58;;;;
2019/06/15 01:24:34;;;;;;;15.8;14.15;;;;;;;19.02;85.55371;94665.58;;;;
2019/06/15 01:25:35;;;;;;;15.8;14.15;;;;;;;19.02;85.55371;94665.58;;;;
2019/06/15 01:26:36;;;;;;;15.8;14.15;;;;;;;19.02;85.55371;94665.58;;;;
2019/06/15 01:27:37;;;;;;;15.8;14.15;;;;;;;19.02;85.55371;94665.58;;;;
2019/06/15 01:28:38;;;;;;;15.8;14.15;;;;;;;19.02;85.55371;94665.58;;;;
2019/06/15 01:29:39;;;;;;;15.8;14.15;;;;;;;19.02;85.55371;94665.58;;;;
2019/06/15 01:30:40;;;;;;;15.8;14.15;;;;;;;19.02;85.55371;94665.58;;;;
2019/06/15 01:31:41;;;;;;;15.8;14.15;;;;;;;19.02;85.55371;94665.58;;;;
2019/06/15 01:32:43;;;;;;;15.8;14.15;;;;;;;19.02;85.55371;94665.58;;;;
2019/06/15 01:33:44;;;;;;;16.4;14.55;;;;;;;18.93;86.27441;94681.62;;;;
2019/06/15 01:34:45;;;;;;;16.4;14.55;;;;;;;18.93;86.27441;94681.62;;;;
2019/06/15 01:35:46;;;;;;;16.4;14.55;;;;;;;18.93;86.27441;94681.62;;;;
2019/06/15 01:36:47;;;;;;;16.4;14.55;;;;;;;18.93;86.27441;94681.62;;;;
2019/06/15 01:37:48;;;;;;;16.4;14.55;;;;;;;18.93;86.27441;94681.62;;;;
2019/06/15 01:38:49;;;;;;;16.4;14.55;;;;;;;18.93;86.27441;94681.62;;;;
2019/06/15 01:39:50;;;;;;;16.4;14.55;;;;;;;18.93;86.27441;94681.62;;;;
2019/06/15 01:40:52;;;;;;;16.4;14.55;;;;;;;18.93;86.27441;94681.62;;;;
2019/06/15 01:41:53;;;;;;;16.4;14.55;;;;;;;18.93;86.27441;94681.62;;;;
2019/06/15 01:42:54;;;;;;;16.4;14.55;;;;;;;18.93;86.27441;94681.62;;;;
2019/06/15 01:43:55;;;;;;;15.75;14.25;;;;;;;18.86;87.1416;94684.34;;;;
2019/06/15 01:44:56;;;;;;;15.75;14.25;;;;;;;18.86;87.1416;94684.34;;;;
2019/06/15 01:45:57;;;;;;;15.75;14.25;;;;;;;18.86;87.1416;94684.34;;;;
2019/06/15 01:46:58;;;;;;;15.75;14.25;;;;;;;18.86;87.1416;94684.34;;;;
2019/06/15 01:47:59;;;;;;;15.75;14.25;;;;;;;18.86;87.1416;94684.34;;;;
2019/06/15 01:49:00;;;;;;;15.75;14.25;;;;;;;18.86;87.1416;94684.34;;;;
2019/06/15 01:50:02;;;;;;;15.75;14.25;;;;;;;18.86;87.1416;94684.34;;;;
2019/06/15 01:51:03;;;;;;;15.75;14.25;;;;;;;18.86;87.1416;94684.34;;;;
2019/06/15 01:52:04;;;;;;;15.75;14.25;;;;;;;18.86;87.1416;94684.34;;;;
2019/06/15 01:53:05;;;;;;;15.75;14.25;;;;;;;18.86;87.1416;94684.34;;;;
2019/06/15 01:54:06;;;;;;;15.75;14.25;;;;;;;18.86;87.1416;94684.34;;;;
2019/06/15 01:55:07;;;;;;;16.05;14.6;;;;;;;18.67;87.77832;94656.68;;;;
2019/06/15 01:56:08;;;;;;;16.05;14.6;;;;;;;18.67;87.77832;94656.68;;;;
2019/06/15 01:57:10;;;;;;;16.05;14.6;;;;;;;18.67;87.77832;94656.68;;;;
2019/06/15 01:58:11;;;;;;;16.05;14.6;;;;;;;18.67;87.77832;94656.68;;;;
2019/06/15 01:59:12;;;;;;;16.05;14.6;;;;;;;18.67;87.77832;94656.68;;;;
2019/06/15 02:00:13;;;;;;;16.05;14.6;;;;;;;18.67;87.77832;94656.68;;;;
2019/06/15 02:01:18;;;;;;;16.05;14.6;;;;;;;18.67;87.77832;94656.68;;;;
2019/06/15 02:02:19;;;;;;;16.05;14.6;;;;;;;18.67;87.77832;94656.68;;;;
2019/06/15 02:03:21;;;;;;;16.05;14.6;;;;;;;18.67;87.77832;94656.68;;;;
2019/06/15 02:04:22;;;;;;;16.05;14.6;;;;;;;18.67;87.77832;94656.68;;;;
2019/06/15 02:05:23;;;;;;;17.25;15.55;;;;;;;18.52;88.66016;94633.15;;;;
2019/06/15 02:06:24;;;;;;;17.25;15.55;;;;;;;18.52;88.66016;94633.15;;;;
2019/06/15 02:07:25;;;;;;;17.25;15.55;;;;;;;18.52;88.66016;94633.15;;;;
2019/06/15 02:08:26;;;;;;;17.25;15.55;;;;;;;18.52;88.66016;94633.15;;;;
2019/06/15 02:09:27;;;;;;;17.25;15.55;;;;;;;18.52;88.66016;94633.15;;;;
2019/06/15 02:10:28;;;;;;;17.25;15.55;;;;;;;18.52;88.66016;94633.15;;;;
2019/06/15 02:11:30;;;;;;;17.25;15.55;;;;;;;18.52;88.66016;94633.15;;;;
2019/06/15 02:12:31;;;;;;;17.25;15.55;;;;;;;18.52;88.66016;94633.15;;;;
2019/06/15 02:13:32;;;;;;;17.25;15.55;;;;;;;18.52;88.66016;94633.15;;;;
2019/06/15 02:14:33;;;;;;;17.25;15.55;;;;;;;18.52;88.66016;94633.15;;;;
2019/06/15 02:15:35;;;;;;;17.15;15.45;;;;;;;18.28;89.27246;94627.52;;;;
2019/06/15 02:16:36;;;;;;;17.15;15.45;;;;;;;18.28;89.27246;94627.52;;;;
2019/06/15 02:17:37;;;;;;;17.15;15.45;;;;;;;18.28;89.27246;94627.52;;;;
2019/06/15 02:18:38;;;;;;;17.15;15.45;;;;;;;18.28;89.27246;94627.52;;;;
2019/06/15 02:19:39;;;;;;;17.15;15.45;;;;;;;18.28;89.27246;94627.52;;;;
2019/06/15 02:20:40;;;;;;;17.15;15.45;;;;;;;18.28;89.27246;94627.52;;;;
2019/06/15 02:21:41;;;;;;;17.15;15.45;;;;;;;18.28;89.27246;94627.52;;;;
2019/06/15 02:22:42;;;;;;;17.15;15.45;;;;;;;18.28;89.27246;94627.52;;;;
2019/06/15 02:23:43;;;;;;;17.15;15.45;;;;;;;18.28;89.27246;94627.52;;;;
2019/06/15 02:24:45;;;;;;;17.15;15.45;;;;;;;18.28;89.27246;94627.52;;;;
2019/06/15 02:25:46;;;;;;;17.15;15.45;;;;;;;18.28;89.27246;94627.52;;;;
2019/06/15 02:26:47;;;;;;;18.1;16.25;;;;;;;18.07;89.96777;94636.63;;;;
2019/06/15 02:27:48;;;;;;;18.1;16.25;;;;;;;18.07;89.96777;94636.63;;;;
2019/06/15 02:28:50;;;;;;;18.1;16.25;;;;;;;18.07;89.96777;94636.63;;;;
2019/06/15 02:29:51;;;;;;;18.1;16.25;;;;;;;18.07;89.96777;94636.63;;;;
2019/06/15 02:30:53;;;;;;;18.1;16.25;;;;;;;18.07;89.96777;94636.63;;;;
2019/06/15 02:31:54;;;;;;;18.1;16.25;;;;;;;18.07;89.96777;94636.63;;;;
2019/06/15 02:32:55;;;;;;;18.1;16.25;;;;;;;18.07;89.96777;94636.63;;;;
2019/06/15 02:33:56;;;;;;;18.1;16.25;;;;;;;18.07;89.96777;94636.63;;;;
2019/06/15 02:34:57;;;;;;;18.1;16.25;;;;;;;18.07;89.96777;94636.63;;;;
2019/06/15 02:35:58;;;;;;;18.1;16.25;;;;;;;18.07;89.96777;94636.63;;;;
2019/06/15 02:37:00;;;;;;;18.35;16.5;;;;;;;17.79;90.83301;94614.01;;;;
2019/06/15 02:38:01;;;;;;;18.35;16.5;;;;;;;17.79;90.83301;94614.01;;;;
2019/06/15 02:39:03;;;;;;;18.35;16.5;;;;;;;17.79;90.83301;94614.01;;;;
2019/06/15 02:40:05;;;;;;;18.35;16.5;;;;;;;17.79;90.83301;94614.01;;;;
2019/06/15 02:41:06;;;;;;;18.35;16.5;;;;;;;17.79;90.83301;94614.01;;;;
2019/06/15 02:42:07;;;;;;;18.35;16.5;;;;;;;17.79;90.83301;94614.01;;;;
2019/06/15 02:43:08;;;;;;;18.35;16.5;;;;;;;17.79;90.83301;94614.01;;;;
2019/06/15 02:44:09;;;;;;;18.35;16.5;;;;;;;17.79;90.83301;94614.01;;;;
2019/06/15 02:45:11;;;;;;;18.35;16.5;;;;;;;17.79;90.83301;94614.01;;;;
2019/06/15 02:46:12;;;;;;;18.35;16.5;;;;;;;17.79;90.83301;94614.01;;;;
2019/06/15 02:47:13;;;;;;;18.35;16.5;;;;;;;17.79;90.83301;94614.01;;;;
2019/06/15 02:48:14;;;;;;;17.65;15.75;;;;;;;17.67;91.8252;94616.77;;;;
2019/06/15 02:49:15;;;;;;;17.65;15.75;;;;;;;17.67;91.8252;94616.77;;;;
2019/06/15 02:50:16;;;;;;;17.65;15.75;;;;;;;17.67;91.8252;94616.77;;;;
2019/06/15 02:51:17;;;;;;;17.65;15.75;;;;;;;17.67;91.8252;94616.77;;;;
2019/06/15 02:52:18;;;;;;;17.65;15.75;;;;;;;17.67;91.8252;94616.77;;;;
2019/06/15 02:53:20;;;;;;;17.65;15.75;;;;;;;17.67;91.8252;94616.77;;;;
2019/06/15 02:54:21;;;;;;;17.65;15.75;;;;;;;17.67;91.8252;94616.77;;;;
2019/06/15 02:55:22;;;;;;;17.65;15.75;;;;;;;17.67;91.8252;94616.77;;;;
2019/06/15 02:56:23;;;;;;;17.65;15.75;;;;;;;17.67;91.8252;94616.77;;;;
2019/06/15 02:57:24;;;;;;;17.65;15.75;;;;;;;17.67;91.8252;94616.77;;;;
2019/06/15 02:58:25;;;;;;;19.15;16.6;;;;;;;17.48;92.25977;94626.89;;;;
2019/06/15 02:59:26;;;;;;;19.15;16.6;;;;;;;17.48;92.25977;94626.89;;;;
2019/06/15 03:00:27;;;;;;;19.15;16.6;;;;;;;17.48;92.25977;94626.89;;;;
2019/06/15 03:01:39;;;;;;;19.15;16.6;;;;;;;17.48;92.25977;94626.89;;;;
2019/06/15 03:02:40;;;;;;;19.15;16.6;;;;;;;17.48;92.25977;94626.89;;;;
2019/06/15 03:03:41;;;;;;;19.15;16.6;;;;;;;17.48;92.25977;94626.89;;;;
2019/06/15 03:04:43;;;;;;;19.15;16.6;;;;;;;17.48;92.25977;94626.89;;;;
2019/06/15 03:05:44;;;;;;;19.15;16.6;;;;;;;17.48;92.25977;94626.89;;;;
2019/06/15 03:06:45;;;;;;;19.15;16.6;;;;;;;17.48;92.25977;94626.89;;;;
2019/06/15 03:07:46;;;;;;;19.15;16.6;;;;;;;17.48;92.25977;94626.89;;;;
2019/06/15 03:08:47;;;;;;;19.1;17.2;;;;;;;17.31;92.89551;94650.69;;;;
2019/06/15 03:09:48;;;;;;;19.1;17.2;;;;;;;17.31;92.89551;94650.69;;;;
2019/06/15 03:10:49;;;;;;;19.1;17.2;;;;;;;17.31;92.89551;94650.69;;;;
2019/06/15 03:11:50;;;;;;;19.1;17.2;;;;;;;17.31;92.89551;94650.69;;;;
2019/06/15 03:12:51;;;;;;;19.1;17.2;;;;;;;17.31;92.89551;94650.69;;;;
2019/06/15 03:13:52;;;;;;;19.1;17.2;;;;;;;17.31;92.89551;94650.69;;;;
2019/06/15 03:14:53;;;;;;;19.1;17.2;;;;;;;17.31;92.89551;94650.69;;;;
2019/06/15 03:15:54;;;;;;;19.1;17.2;;;;;;;17.31;92.89551;94650.69;;;;
2019/06/15 03:16:55;;;;;;;19.1;17.2;;;;;;;17.31;92.89551;94650.69;;;;
2019/06/15 03:17:56;;;;;;;19.1;17.2;;;;;;;17.31;92.89551;94650.69;;;;
2019/06/15 03:18:58;;;;;;;19.1;17.2;;;;;;;17.31;92.89551;94650.69;;;;
2019/06/15 03:19:59;;;;;;;18.45;16.5;;;;;;;17.08;93.46387;94646.89;;;;
2019/06/15 03:21:00;;;;;;;18.45;16.5;;;;;;;17.08;93.46387;94646.89;;;;
2019/06/15 03:22:01;;;;;;;18.45;16.5;;;;;;;17.08;93.46387;94646.89;;;;
2019/06/15 03:23:02;;;;;;;18.45;16.5;;;;;;;17.08;93.46387;94646.89;;;;
2019/06/15 03:24:03;;;;;;;18.45;16.5;;;;;;;17.08;93.46387;94646.89;;;;
2019/06/15 03:25:04;;;;;;;18.45;16.5;;;;;;;17.08;93.46387;94646.89;;;;
2019/06/15 03:26:08;;;;;;;18.45;16.5;;;;;;;17.08;93.46387;94646.89;;;;
2019/06/15 03:27:09;;;;;;;18.45;16.5;;;;;;;17.08;93.46387;94646.89;;;;
2019/06/15 03:28:10;;;;;;;18.45;16.5;;;;;;;17.08;93.46387;94646.89;;;;
2019/06/15 03:29:11;;;;;;;18.45;16.5;;;;;;;17.08;93.46387;94646.89;;;;
2019/06/15 03:30:12;;;;;;;19.05;16.55;;;;;;;16.96;94.15039;94636.55;;;;
2019/06/15 03:31:14;;;;;;;19.05;16.55;;;;;;;16.96;94.15039;94636.55;;;;
2019/06/15 03:32:15;;;;;;;19.05;16.55;;;;;;;16.96;94.15039;94636.55;;;;
2019/06/15 03:33:16;;;;;;;19.05;16.55;;;;;;;16.96;94.15039;94636.55;;;;
2019/06/15 03:34:17;;;;;;;19.05;16.55;;;;;;;16.96;94.15039;94636.55;;;;
2019/06/15 03:35:18;;;;;;;19.05;16.55;;;;;;;16.96;94.15039;94636.55;;;;
2019/06/15 03:36:19;;;;;;;19.05;16.55;;;;;;;16.96;94.15039;94636.55;;;;
2019/06/15 03:37:20;;;;;;;19.05;16.55;;;;;;;16.96;94.15039;94636.55;;;;
2019/06/15 03:38:21;;;;;;;19.05;16.55;;;;;;;16.96;94.15039;94636.55;;;;
2019/06/15 03:39:22;;;;;;;19.05;16.55;;;;;;;16.96;94.15039;94636.55;;;;
2019/06/15 03:40:23;;;;;;;18.8;16.65;;;;;;;16.76;94.55273;94652.59;;;;
2019/06/15 03:41:24;;;;;;;18.8;16.65;;;;;;;16.76;94.55273;94652.59;;;;
2019/06/15 03:42:25;;;;;;;18.8;16.65;;;;;;;16.76;94.55273;94652.59;;;;
2019/06/15 03:43:26;;;;;;;18.8;16.65;;;;;;;16.76;94.55273;94652.59;;;;
2019/06/15 03:44:27;;;;;;;18.8;16.65;;;;;;;16.76;94.55273;94652.59;;;;
2019/06/15 03:45:28;;;;;;;18.8;16.65;;;;;;;16.76;94.55273;94652.59;;;;
2019/06/15 03:46:29;;;;;;;18.8;16.65;;;;;;;16.76;94.55273;94652.59;;;;
2019/06/15 03:47:31;;;;;;;18.8;16.65;;;;;;;16.76;94.55273;94652.59;;;;
2019/06/15 03:48:32;;;;;;;18.8;16.65;;;;;;;16.76;94.55273;94652.59;;;;
2019/06/15 03:49:33;;;;;;;18.8;16.65;;;;;;;16.76;94.55273;94652.59;;;;
2019/06/15 03:50:34;;;;;;;18.8;16.65;;;;;;;16.76;94.55273;94652.59;;;;
2019/06/15 03:51:35;;;;;;;20.2;18.1;;;;;;;16.62;94.98438;94651.25;;;;
2019/06/15 03:52:36;;;;;;;20.2;18.1;;;;;;;16.62;94.98438;94651.25;;;;
2019/06/15 03:53:37;;;;;;;20.2;18.1;;;;;;;16.62;94.98438;94651.25;;;;
2019/06/15 03:54:38;;;;;;;20.2;18.1;;;;;;;16.62;94.98438;94651.25;;;;
2019/06/15 03:55:39;;;;;;;20.2;18.1;;;;;;;16.62;94.98438;94651.25;;;;
2019/06/15 03:56:40;;;;;;;20.2;18.1;;;;;;;16.62;94.98438;94651.25;;;;
2019/06/15 03:57:41;;;;;;;20.2;18.1;;;;;;;16.62;94.98438;94651.25;;;;
2019/06/15 03:58:42;;;;;;;20.2;18.1;;;;;;;16.62;94.98438;94651.25;;;;
2019/06/15 03:59:44;;;;;;;20.2;18.1;;;;;;;16.62;94.98438;94651.25;;;;
2019/06/15 04:00:45;;;;;;;20.2;18.1;;;;;;;16.62;94.98438;94651.25;;;;
2019/06/15 04:01:47;;;;;;;19.35;17.4;;;;;;;16.44;95.43262;94669.12;;;;
2019/06/15 04:02:48;;;;;;;19.35;17.4;;;;;;;16.44;95.43262;94669.12;;;;
2019/06/15 04:03:49;;;;;;;19.35;17.4;;;;;;;16.44;95.43262;94669.12;;;;
2019/06/15 04:04:50;;;;;;;19.35;17.4;;;;;;;16.44;95.43262;94669.12;;;;
2019/06/15 04:05:51;;;;;;;19.35;17.4;;;;;;;16.44;95.43262;94669.12;;;;
2019/06/15 04:06:52;;;;;;;19.35;17.4;;;;;;;16.44;95.43262;94669.12;;;;
2019/06/15 04:07:53;;;;;;;19.35;17.4;;;;;;;16.44;95.43262;94669.12;;;;
2019/06/15 04:08:54;;;;;;;19.35;17.4;;;;;;;16.44;95.43262;94669.12;;;;
2019/06/15 04:09:55;;;;;;;19.35;17.4;;;;;;;16.44;95.43262;94669.12;;;;
2019/06/15 04:10:56;;;;;;;19.35;17.4;;;;;;;16.44;95.43262;94669.12;;;;
2019/06/15 04:11:57;;;;;;;19.35;17.4;;;;;;;16.44;95.43262;94669.12;;;;
2019/06/15 04:12:59;;;;;;;19.1;17.15;;;;;;;16.47;96.54883;94666.25;;;;
2019/06/15 04:14:00;;;;;;;19.1;17.15;;;;;;;16.47;96.54883;94666.25;;;;
2019/06/15 04:15:01;;;;;;;19.1;17.15;;;;;;;16.47;96.54883;94666.25;;;;
2019/06/15 04:16:02;;;;;;;19.1;17.15;;;;;;;16.47;96.54883;94666.25;;;;
2019/06/15 04:17:03;;;;;;;19.1;17.15;;;;;;;16.47;96.54883;94666.25;;;;
2019/06/15 04:18:04;;;;;;;19.1;17.15;;;;;;;16.47;96.54883;94666.25;;;;
2019/06/15 04:19:05;;;;;;;19.1;17.15;;;;;;;16.47;96.54883;94666.25;;;;
2019/06/15 04:20:06;;;;;;;19.1;17.15;;;;;;;16.47;96.54883;94666.25;;;;
2019/06/15 04:21:07;;;;;;;19.1;17.15;;;;;;;16.47;96.54883;94666.25;;;;
2019/06/15 04:22:08;;;;;;;19.1;17.15;;;;;;;16.47;96.54883;94666.25;;;;
2019/06/15 04:23:09;;;;;;;18.3;16.4;;;;;;;16.44;96.62891;94667.75;;;;
2019/06/15 04:24:10;;;;;;;18.3;16.4;;;;;;;16.44;96.62891;94667.75;;;;
2019/06/15 04:25:11;;;;;;;18.3;16.4;;;;;;;16.44;96.62891;94667.75;;;;
2019/06/15 04:26:12;;;;;;;18.3;16.4;;;;;;;16.44;96.62891;94667.75;;;;
2019/06/15 04:27:14;;;;;;;18.3;16.4;;;;;;;16.44;96.62891;94667.75;;;;
2019/06/15 04:28:15;;;;;;;18.3;16.4;;;;;;;16.44;96.62891;94667.75;;;;
2019/06/15 04:29:16;;;;;;;18.3;16.4;;;;;;;16.44;96.62891;94667.75;;;;
2019/06/15 04:30:17;;;;;;;18.3;16.4;;;;;;;16.44;96.62891;94667.75;;;;
2019/06/15 04:31:18;;;;;;;18.3;16.4;;;;;;;16.44;96.62891;94667.75;;;;
2019/06/15 04:32:19;;;;;;;18.3;16.4;;;;;;;16.44;96.62891;94667.75;;;;
2019/06/15 04:33:20;;;;;;;18.3;16.4;;;;;;;16.44;96.62891;94667.75;;;;
2019/06/15 04:34:21;;;;;;;18.7;16.75;;;;;;;16.45;96.83594;94673.86;;;;
2019/06/15 04:35:22;;;;;;;18.7;16.75;;;;;;;16.45;96.83594;94673.86;;;;
2019/06/15 04:36:23;;;;;;;18.7;16.75;;;;;;;16.45;96.83594;94673.86;;;;
2019/06/15 04:37:25;;;;;;;18.7;16.75;;;;;;;16.45;96.83594;94673.86;;;;
2019/06/15 04:38:26;;;;;;;18.7;16.75;;;;;;;16.45;96.83594;94673.86;;;;
2019/06/15 04:39:27;;;;;;;18.7;16.75;;;;;;;16.45;96.83594;94673.86;;;;
2019/06/15 04:40:28;;;;;;;18.7;16.75;;;;;;;16.45;96.83594;94673.86;;;;
2019/06/15 04:41:29;;;;;;;18.7;16.75;;;;;;;16.45;96.83594;94673.86;;;;
2019/06/15 04:42:30;;;;;;;18.7;16.75;;;;;;;16.45;96.83594;94673.86;;;;
2019/06/15 04:43:31;;;;;;;18.7;16.75;;;;;;;16.45;96.83594;94673.86;;;;
2019/06/15 04:44:32;;;;;;;17.25;15.45;;;;;;;16.48;97.0127;94679.3;;;;
2019/06/15 04:45:33;;;;;;;17.25;15.45;;;;;;;16.48;97.0127;94679.3;;;;
2019/06/15 04:46:34;;;;;;;17.25;15.45;;;;;;;16.48;97.0127;94679.3;;;;
2019/06/15 04:47:35;;;;;;;17.25;15.45;;;;;;;16.48;97.0127;94679.3;;;;
2019/06/15 04:48:36;;;;;;;17.25;15.45;;;;;;;16.48;97.0127;94679.3;;;;
2019/06/15 04:49:37;;;;;;;17.25;15.45;;;;;;;16.48;97.0127;94679.3;;;;
2019/06/15 04:50:38;;;;;;;17.25;15.45;;;;;;;16.48;97.0127;94679.3;;;;
2019/06/15 04:51:39;;;;;;;17.25;15.45;;;;;;;16.48;97.0127;94679.3;;;;
2019/06/15 04:52:40;;;;;;;17.25;15.45;;;;;;;16.48;97.0127;94679.3;;;;
2019/06/15 04:53:41;;;;;;;17.25;15.45;;;;;;;16.48;97.0127;94679.3;;;;
2019/06/15 04:54:42;;;;;;;14.9;12.4;;;;;;;16.67;97.07715;94679.27;;;;
2019/06/15 04:55:44;;;;;;;14.9;12.4;;;;;;;16.67;97.07715;94679.27;;;;
2019/06/15 04:56:45;;;;;;;14.9;12.4;;;;;;;16.67;97.07715;94679.27;;;;
2019/06/15 04:57:46;;;;;;;14.9;12.4;;;;;;;16.67;97.07715;94679.27;;;;
2019/06/15 04:58:47;;;;;;;14.9;12.4;;;;;;;16.67;97.07715;94679.27;;;;
2019/06/15 04:59:48;;;;;;;14.9;12.4;;;;;;;16.67;97.07715;94679.27;;;;
2019/06/15 05:00:49;;;;;;;14.9;12.4;;;;;;;16.67;97.07715;94679.27;;;;
2019/06/15 05:01:50;;;;;;;14.9;12.4;;;;;;;16.67;97.07715;94679.27;;;;
2019/06/15 05:02:51;;;;;;;14.9;12.4;;;;;;;16.67;97.07715;94679.27;;;;
2019/06/15 05:03:52;;;;;;;14.9;12.4;;;;;;;16.67;97.07715;94679.27;;;;
2019/06/15 05:04:53;;;;;;;14.9;12.4;;;;;;;16.67;97.07715;94679.27;;;;
2019/06/15 05:05:54;;;;;;;13.35;9;;;;;;;17.09;96.49902;94681.24;;;;
2019/06/15 05:06:55;;;;;;;13.35;9;;;;;;;17.09;96.49902;94681.24;;;;
2019/06/15 05:07:56;;;;;;;13.35;9;;;;;;;17.09;96.49902;94681.24;;;;
2019/06/15 05:08:57;;;;;;;13.35;9;;;;;;;17.09;96.49902;94681.24;;;;
2019/06/15 05:09:59;;;;;;;13.35;9;;;;;;;17.09;96.49902;94681.24;;;;
2019/06/15 05:11:00;;;;;;;13.35;9;;;;;;;17.09;96.49902;94681.24;;;;
2019/06/15 05:12:01;;;;;;;13.35;9;;;;;;;17.09;96.49902;94681.24;;;;
2019/06/15 05:13:02;;;;;;;13.35;9;;;;;;;17.09;96.49902;94681.24;;;;
2019/06/15 05:14:03;;;;;;;13.35;9;;;;;;;17.09;96.49902;94681.24;;;;
2019/06/15 05:15:04;;;;;;;13.35;9;;;;;;;17.09;96.49902;94681.24;;;;
2019/06/15 05:16:05;;;;;;;12.25;6.8;;;;;;;17.86;95.08789;94685.46;;;;
2019/06/15 05:17:06;;;;;;;12.25;6.8;;;;;;;17.86;95.08789;94685.46;;;;
2019/06/15 05:18:07;;;;;;;12.25;6.8;;;;;;;17.86;95.08789;94685.46;;;;
2019/06/15 05:19:08;;;;;;;12.25;6.8;;;;;;;17.86;95.08789;94685.46;;;;
2019/06/15 05:20:09;;;;;;;12.25;6.8;;;;;;;17.86;95.08789;94685.46;;;;
2019/06/15 05:21:10;;;;;;;12.25;6.8;;;;;;;17.86;95.08789;94685.46;;;;
2019/06/15 05:22:11;;;;;;;12.25;6.8;;;;;;;17.86;95.08789;94685.46;;;;
2019/06/15 05:23:12;;;;;;;12.25;6.8;;;;;;;17.86;95.08789;94685.46;;;;
2019/06/15 05:24:13;;;;;;;12.25;6.8;;;;;;;17.86;95.08789;94685.46;;;;
2019/06/15 05:25:14;;;;;;;12.25;6.8;;;;;;;17.86;95.08789;94685.46;;;;
2019/06/15 05:26:15;;;;;;;12.25;6.8;;;;;;;17.86;95.08789;94685.46;;;;
2019/06/15 05:27:17;;;;;;;12.25;6.8;;;;;;;17.86;95.08789;94685.46;;;;
2019/06/15 05:28:18;;;;;;;12.25;6.8;;;;;;;17.86;95.08789;94685.46;;;;
2019/06/15 05:29:19;;;;;;;12.25;6.8;;;;;;;17.86;95.08789;94685.46;;;;
2019/06/15 05:30:20;;;;;;;12.25;6.8;;;;;;;17.86;95.08789;94685.46;;;;
2019/06/15 05:31:21;;;;;;;12.25;6.8;;;;;;;17.86;95.08789;94685.46;;;;
2019/06/15 05:32:22;;;;;;;12.25;6.8;;;;;;;17.86;95.08789;94685.46;;;;
2019/06/15 05:33:23;;;;;;;12.25;6.8;;;;;;;17.86;95.08789;94685.46;;;;
2019/06/15 05:34:24;;;;;;;12.25;6.8;;;;;;;17.86;95.08789;94685.46;;;;
2019/06/15 05:35:25;;;;;;;12.25;6.8;;;;;;;17.86;95.08789;94685.46;;;;
2019/06/15 05:36:26;;;;;;;12.25;6.8;;;;;;;17.86;95.08789;94685.46;;;;
2019/06/15 05:37:27;;;;;;;12.45;6.699999;;;;;;;19.57;91.35938;94804.14;;;;
2019/06/15 05:38:28;;;;;;;12.45;6.699999;;;;;;;19.57;91.35938;94804.14;;;;
2019/06/15 05:39:29;;;;;;;12.45;6.699999;;;;;;;19.57;91.35938;94804.14;;;;
2019/06/15 05:40:30;;;;;;;12.45;6.699999;;;;;;;19.57;91.35938;94804.14;;;;
2019/06/15 05:41:31;;;;;;;12.45;6.699999;;;;;;;19.57;91.35938;94804.14;;;;